createdAt,value
2017-04-02T00:00:36.480Z,1010.48
2017-04-02T00:01:46.389Z,1010.46
2017-04-02T00:02:56.449Z,1010.49
2017-04-02T00:04:06.402Z,1010.5
2017-04-02T00:05:16.331Z,1010.52
2017-04-02T00:06:26.551Z,1010.55
2017-04-02T00:07:36.477Z,1010.49
2017-04-02T00:08:46.702Z,1010.54
2017-04-02T00:09:56.972Z,1010.59
2017-04-02T00:11:07.218Z,1010.56
2017-04-02T00:12:16.543Z,1010.61
2017-04-02T00:13:26.790Z,1010.6
2017-04-02T00:14:37.166Z,1010.59
2017-04-02T00:15:46.771Z,1010.56
2017-04-02T00:16:57.050Z,1010.58
2017-04-02T00:18:06.963Z,1010.57
2017-04-02T00:19:16.874Z,1010.59
2017-04-02T00:20:27.287Z,1010.6
2017-04-02T00:21:37.198Z,1010.6
2017-04-02T00:22:47.418Z,1010.61
2017-04-02T00:23:57.633Z,1010.6
2017-04-02T00:25:07.290Z,1010.56
2017-04-02T00:26:17.354Z,1010.59
2017-04-02T00:27:27.260Z,1010.6
2017-04-02T00:28:36.923Z,1010.63
2017-04-02T00:29:46.860Z,1010.67
2017-04-02T00:30:56.463Z,1010.64
2017-04-02T00:32:06.845Z,1010.63
2017-04-02T00:33:15.860Z,1010.63
2017-04-02T00:34:25.522Z,1010.65
2017-04-02T00:35:35.764Z,1010.64
2017-04-02T00:36:45.678Z,1010.66
2017-04-02T00:37:55.768Z,1010.68
2017-04-02T00:39:05.978Z,1010.68
2017-04-02T00:40:15.281Z,1010.71
2017-04-02T00:41:25.178Z,1010.75
2017-04-02T00:42:34.779Z,1010.72
2017-04-02T00:43:44.518Z,1010.7
2017-04-02T00:44:54.521Z,1010.7
2017-04-02T00:46:04.449Z,1010.69
2017-04-02T00:47:14.088Z,1010.69
2017-04-02T00:48:24.084Z,1010.71
2017-04-02T00:49:34.464Z,1010.73
2017-04-02T00:50:44.687Z,1010.68
2017-04-02T00:51:54.657Z,1010.72
2017-04-02T00:53:04.574Z,1010.71
2017-04-02T00:54:14.176Z,1010.62
2017-04-02T00:55:24.565Z,1010.71
2017-04-02T00:56:34.782Z,1010.72
2017-04-02T00:57:44.085Z,1010.71
2017-04-02T00:58:54.008Z,1010.72
2017-04-02T01:00:03.308Z,1010.74
2017-04-02T01:01:12.764Z,1010.73
2017-04-02T01:02:22.769Z,1010.74
2017-04-02T01:03:32.817Z,1010.73
2017-04-02T01:04:42.731Z,1010.75
2017-04-02T01:05:52.027Z,1010.74
2017-04-02T01:07:02.394Z,1010.75
2017-04-02T01:08:12.301Z,1010.76
2017-04-02T01:09:22.521Z,1010.75
2017-04-02T01:10:32.497Z,1010.77
2017-04-02T01:11:42.708Z,1010.79
2017-04-02T01:12:53.069Z,1010.79
2017-04-02T01:14:03.284Z,1010.81
2017-04-02T01:15:12.907Z,1010.81
2017-04-02T01:16:23.117Z,1010.88
2017-04-02T01:17:33.035Z,1010.84
2017-04-02T01:18:42.802Z,1010.79
2017-04-02T01:19:52.789Z,1010.88
2017-04-02T01:21:03.038Z,1010.82
2017-04-02T01:22:12.963Z,1010.87
2017-04-02T01:23:22.958Z,1010.84
2017-04-02T01:24:33.017Z,1010.84
2017-04-02T01:25:43.287Z,1010.83
2017-04-02T01:26:53.518Z,1010.85
2017-04-02T01:28:03.441Z,1010.87
2017-04-02T01:29:13.663Z,1010.89
2017-04-02T01:30:23.440Z,1010.92
2017-04-02T01:31:33.044Z,1010.89
2017-04-02T01:32:42.948Z,1010.89
2017-04-02T01:33:52.859Z,1010.91
2017-04-02T01:35:02.457Z,1010.92
2017-04-02T01:36:12.531Z,1010.87
2017-04-02T01:37:22.451Z,1010.88
2017-04-02T01:38:32.054Z,1010.9
2017-04-02T01:39:42.259Z,1010.85
2017-04-02T01:40:52.167Z,1010.86
2017-04-02T01:42:02.436Z,1010.86
2017-04-02T01:43:12.048Z,1010.85
2017-04-02T01:44:21.972Z,1010.9
2017-04-02T01:45:31.911Z,1010.94
2017-04-02T01:46:41.857Z,1010.93
2017-04-02T01:47:51.599Z,1010.93
2017-04-02T01:49:00.586Z,1010.93
2017-04-02T01:50:10.796Z,1010.94
2017-04-02T01:51:21.021Z,1010.95
2017-04-02T01:52:31.226Z,1010.95
2017-04-02T01:53:41.292Z,1010.95
2017-04-02T01:54:51.513Z,1010.93
2017-04-02T01:56:01.428Z,1010.97
2017-04-02T01:57:10.733Z,1010.98
2017-04-02T01:58:20.676Z,1010.98
2017-04-02T01:59:30.744Z,1011.02
2017-04-02T02:00:40.344Z,1011.03
2017-04-02T02:01:49.683Z,1011.08
2017-04-02T02:02:59.895Z,1011.07
2017-04-02T02:04:09.810Z,1011.08
2017-04-02T02:05:19.874Z,1011.12
2017-04-02T02:06:29.482Z,1011.12
2017-04-02T02:07:40.068Z,1011.12
2017-04-02T02:08:49.992Z,1011.13
2017-04-02T02:09:59.919Z,1011.09
2017-04-02T02:11:09.949Z,1011.13
2017-04-02T02:12:19.557Z,1011.18
2017-04-02T02:13:29.477Z,1011.17
2017-04-02T02:14:39.075Z,1011.18
2017-04-02T02:15:48.716Z,1011.19
2017-04-02T02:16:59.037Z,1011.23
2017-04-02T02:18:09.236Z,1011.2
2017-04-02T02:19:18.845Z,1011.21
2017-04-02T02:20:29.057Z,1011.2
2017-04-02T02:21:39.267Z,1011.18
2017-04-02T02:22:49.270Z,1011.16
2017-04-02T02:23:58.569Z,1011.17
2017-04-02T02:25:08.210Z,1011.13
2017-04-02T02:26:18.433Z,1011.18
2017-04-02T02:27:28.043Z,1011.2
2017-04-02T02:28:37.792Z,1011.21
2017-04-02T02:29:48.014Z,1011.25
2017-04-02T02:30:58.230Z,1011.23
2017-04-02T02:32:07.825Z,1011.28
2017-04-02T02:33:17.431Z,1011.28
2017-04-02T02:34:26.900Z,1011.28
2017-04-02T02:35:36.513Z,1011.29
2017-04-02T02:36:46.743Z,1011.27
2017-04-02T02:37:56.954Z,1011.22
2017-04-02T02:39:06.856Z,1011.25
2017-04-02T02:40:16.594Z,1011.28
2017-04-02T02:41:25.592Z,1011.28
2017-04-02T02:42:35.489Z,1011.27
2017-04-02T02:43:45.086Z,1011.27
2017-04-02T02:44:54.984Z,1011.31
2017-04-02T02:46:04.735Z,1011.29
2017-04-02T02:47:14.635Z,1011.27
2017-04-02T02:48:24.256Z,1011.28
2017-04-02T02:49:34.163Z,1011.31
2017-04-02T02:50:44.063Z,1011.3
2017-04-02T02:51:54.423Z,1011.34
2017-04-02T02:53:04.385Z,1011.29
2017-04-02T02:54:14.616Z,1011.36
2017-04-02T02:55:24.823Z,1011.42
2017-04-02T02:56:34.737Z,1011.39
2017-04-02T02:57:45.113Z,1011.42
2017-04-02T02:58:54.711Z,1011.42
2017-04-02T03:00:04.936Z,1011.44
2017-04-02T03:01:14.853Z,1011.44
2017-04-02T03:02:25.071Z,1011.42
2017-04-02T03:03:35.138Z,1011.43
2017-04-02T03:04:45.064Z,1011.44
2017-04-02T03:05:54.670Z,1011.46
2017-04-02T03:07:04.271Z,1011.43
2017-04-02T03:08:14.198Z,1011.48
2017-04-02T03:09:24.265Z,1011.48
2017-04-02T03:10:33.873Z,1011.5
2017-04-02T03:11:43.473Z,1011.5
2017-04-02T03:12:53.372Z,1011.52
2017-04-02T03:14:02.974Z,1011.54
2017-04-02T03:15:12.453Z,1011.57
2017-04-02T03:16:22.059Z,1011.58
2017-04-02T03:17:31.977Z,1011.57
2017-04-02T03:18:41.893Z,1011.59
2017-04-02T03:19:52.111Z,1011.62
2017-04-02T03:21:02.524Z,1011.61
2017-04-02T03:22:12.743Z,1011.6
2017-04-02T03:23:22.657Z,1011.61
2017-04-02T03:24:32.260Z,1011.58
2017-04-02T03:25:42.476Z,1011.64
2017-04-02T03:26:52.536Z,1011.6
2017-04-02T03:28:02.447Z,1011.62
2017-04-02T03:29:12.654Z,1011.64
2017-04-02T03:30:22.561Z,1011.64
2017-04-02T03:31:32.770Z,1011.67
2017-04-02T03:32:42.517Z,1011.69
2017-04-02T03:34:11.645Z,1011.74
2017-04-02T03:35:20.991Z,1011.72
2017-04-02T03:36:30.596Z,1011.74
2017-04-02T03:37:39.886Z,1011.76
2017-04-02T03:38:49.941Z,1011.76
2017-04-02T03:39:59.547Z,1011.77
2017-04-02T03:41:09.151Z,1011.78
2017-04-02T03:42:18.759Z,1011.73
2017-04-02T03:43:28.514Z,1011.72
2017-04-02T03:44:38.423Z,1011.72
2017-04-02T03:45:48.321Z,1011.75
2017-04-02T03:46:58.230Z,1011.8
2017-04-02T03:48:08.139Z,1011.78
2017-04-02T03:49:18.653Z,1011.76
2017-04-02T03:50:28.862Z,1011.79
2017-04-02T03:51:38.761Z,1011.84
2017-04-02T03:52:48.368Z,1011.87
2017-04-02T03:53:58.275Z,1011.87
2017-04-02T03:55:08.015Z,1011.88
2017-04-02T03:56:17.929Z,1011.89
2017-04-02T03:57:28.148Z,1011.88
2017-04-02T03:58:38.053Z,1011.91
2017-04-02T03:59:47.965Z,1011.94
2017-04-02T04:00:57.560Z,1011.98
2017-04-02T04:02:07.169Z,1012
2017-04-02T04:03:17.090Z,1011.99
2017-04-02T04:04:27.302Z,1012.02
2017-04-02T04:05:37.562Z,1012.03
2017-04-02T04:06:48.127Z,1012.01
2017-04-02T04:07:58.345Z,1012.08
2017-04-02T04:09:07.940Z,1012.07
2017-04-02T04:10:17.846Z,1012.05
2017-04-02T04:11:27.756Z,1012.06
2017-04-02T04:12:38.017Z,1012.04
2017-04-02T04:13:47.630Z,1012.05
2017-04-02T04:14:57.548Z,1012.14
2017-04-02T04:16:08.145Z,1012.16
2017-04-02T04:17:17.853Z,1012.16
2017-04-02T04:18:28.413Z,1012.19
2017-04-02T04:19:38.331Z,1012.21
2017-04-02T04:20:48.570Z,1012.21
2017-04-02T04:21:58.855Z,1012.25
2017-04-02T04:23:08.774Z,1012.23
2017-04-02T04:24:19.031Z,1012.24
2017-04-02T04:25:28.633Z,1012.25
2017-04-02T04:26:38.843Z,1012.23
2017-04-02T04:27:48.748Z,1012.27
2017-04-02T04:28:58.954Z,1012.25
2017-04-02T04:30:09.019Z,1012.28
2017-04-02T04:31:18.934Z,1012.27
2017-04-02T04:32:29.140Z,1012.28
2017-04-02T04:33:39.060Z,1012.31
2017-04-02T04:34:48.959Z,1012.3
2017-04-02T04:35:59.024Z,1012.34
2017-04-02T04:37:08.930Z,1012.36
2017-04-02T04:38:19.146Z,1012.33
2017-04-02T04:39:28.760Z,1012.36
2017-04-02T04:40:38.356Z,1012.34
2017-04-02T04:41:48.612Z,1012.38
2017-04-02T04:42:58.208Z,1012.38
2017-04-02T04:44:08.417Z,1012.4
2017-04-02T04:45:18.621Z,1012.38
2017-04-02T04:46:28.559Z,1012.42
2017-04-02T04:47:38.469Z,1012.45
2017-04-02T04:48:48.666Z,1012.48
2017-04-02T04:49:58.563Z,1012.48
2017-04-02T04:51:08.488Z,1012.49
2017-04-02T04:52:18.695Z,1012.54
2017-04-02T04:53:28.751Z,1012.55
2017-04-02T04:54:38.659Z,1012.58
2017-04-02T04:55:48.567Z,1012.58
2017-04-02T04:56:58.785Z,1012.61
2017-04-02T04:58:08.987Z,1012.6
2017-04-02T04:59:19.435Z,1012.67
2017-04-02T05:00:29.638Z,1012.69
2017-04-02T05:01:39.544Z,1012.7
2017-04-02T05:02:49.445Z,1012.74
2017-04-02T05:03:59.050Z,1012.76
2017-04-02T05:05:09.958Z,1012.77
2017-04-02T05:06:19.879Z,1012.81
2017-04-02T05:07:29.499Z,1012.85
2017-04-02T05:08:39.417Z,1012.85
2017-04-02T05:09:49.639Z,1012.86
2017-04-02T05:11:01.525Z,1012.86
2017-04-02T05:12:11.143Z,1012.84
2017-04-02T05:13:21.336Z,1012.88
2017-04-02T05:14:30.624Z,1012.92
2017-04-02T05:15:40.830Z,1012.91
2017-04-02T05:16:51.164Z,1012.92
2017-04-02T05:18:00.759Z,1012.91
2017-04-02T05:19:10.731Z,1012.98
2017-04-02T05:20:20.022Z,1012.92
2017-04-02T05:21:29.636Z,1012.96
2017-04-02T05:22:39.377Z,1012.96
2017-04-02T05:23:49.286Z,1012.95
2017-04-02T05:24:58.580Z,1012.95
2017-04-02T05:26:08.188Z,1013
2017-04-02T05:27:18.094Z,1012.98
2017-04-02T05:28:28.296Z,1012.97
2017-04-02T05:29:38.520Z,1013
2017-04-02T05:30:48.424Z,1013
2017-04-02T05:31:58.073Z,1013.12
2017-04-02T05:33:08.291Z,1013.12
2017-04-02T05:34:18.664Z,1013.16
2017-04-02T05:35:28.583Z,1013.19
2017-04-02T05:36:38.198Z,1013.18
2017-04-02T05:37:48.405Z,1013.17
2017-04-02T05:38:58.612Z,1013.25
2017-04-02T05:40:08.538Z,1013.23
2017-04-02T05:41:17.889Z,1013.26
2017-04-02T05:42:28.182Z,1013.29
2017-04-02T05:43:38.089Z,1013.32
2017-04-02T05:44:47.382Z,1013.3
2017-04-02T05:45:57.753Z,1013.31
2017-04-02T05:47:07.718Z,1013.33
2017-04-02T05:48:17.009Z,1013.35
2017-04-02T05:49:26.615Z,1013.37
2017-04-02T05:50:36.211Z,1013.42
2017-04-02T05:51:46.724Z,1013.4
2017-04-02T05:52:56.322Z,1013.41
2017-04-02T05:54:06.534Z,1013.46
2017-04-02T05:55:16.143Z,1013.46
2017-04-02T05:56:26.059Z,1013.45
2017-04-02T05:57:36.588Z,1013.46
2017-04-02T05:58:46.494Z,1013.47
2017-04-02T05:59:56.701Z,1013.49
2017-04-02T06:01:06.964Z,1013.54
2017-04-02T06:02:16.867Z,1013.53
2017-04-02T06:03:27.534Z,1013.53
2017-04-02T06:04:37.749Z,1013.54
2017-04-02T06:05:47.974Z,1013.55
2017-04-02T06:06:57.731Z,1013.56
2017-04-02T06:08:07.957Z,1013.51
2017-04-02T06:09:19.062Z,1013.57
2017-04-02T06:10:28.661Z,1013.57
2017-04-02T06:11:38.868Z,1013.59
2017-04-02T06:12:49.078Z,1013.6
2017-04-02T06:13:58.985Z,1013.63
2017-04-02T06:15:08.621Z,1013.6
2017-04-02T06:16:18.525Z,1013.64
2017-04-02T06:17:28.455Z,1013.63
2017-04-02T06:18:38.664Z,1013.67
2017-04-02T06:19:48.947Z,1013.68
2017-04-02T06:20:58.893Z,1013.7
2017-04-02T06:22:08.790Z,1013.7
2017-04-02T06:23:18.391Z,1013.76
2017-04-02T06:24:28.338Z,1013.78
2017-04-02T06:25:38.244Z,1013.79
2017-04-02T06:26:48.460Z,1013.74
2017-04-02T06:27:58.074Z,1013.78
2017-04-02T06:29:07.695Z,1013.76
2017-04-02T06:30:17.298Z,1013.77
2017-04-02T06:31:27.210Z,1013.76
2017-04-02T06:32:37.407Z,1013.8
2017-04-02T06:33:46.999Z,1013.8
2017-04-02T06:34:57.219Z,1013.82
2017-04-02T06:36:07.140Z,1013.77
2017-04-02T06:37:17.354Z,1013.83
2017-04-02T06:38:27.654Z,1013.8
2017-04-02T06:39:37.881Z,1013.82
2017-04-02T06:40:48.110Z,1013.83
2017-04-02T06:41:57.716Z,1013.85
2017-04-02T06:43:07.351Z,1013.87
2017-04-02T06:44:17.107Z,1013.83
2017-04-02T06:45:27.021Z,1013.87
2017-04-02T06:46:36.926Z,1013.85
2017-04-02T06:47:46.827Z,1013.86
2017-04-02T06:48:56.729Z,1013.83
2017-04-02T06:50:07.318Z,1013.83
2017-04-02T06:51:16.623Z,1013.84
2017-04-02T06:52:26.532Z,1013.9
2017-04-02T06:53:36.438Z,1013.88
2017-04-02T06:54:46.641Z,1013.91
2017-04-02T06:55:57.157Z,1013.93
2017-04-02T06:57:07.447Z,1013.91
2017-04-02T06:58:17.662Z,1013.96
2017-04-02T06:59:27.262Z,1013.89
2017-04-02T07:00:37.470Z,1013.96
2017-04-02T07:01:47.230Z,1013.98
2017-04-02T07:02:56.836Z,1013.97
2017-04-02T07:04:06.457Z,1014
2017-04-02T07:05:16.483Z,1014.01
2017-04-02T07:06:26.882Z,1014.05
2017-04-02T07:07:37.471Z,1014.05
2017-04-02T07:08:47.819Z,1014.09
2017-04-02T07:09:58.139Z,1014.06
2017-04-02T07:11:07.749Z,1014.1
2017-04-02T07:12:17.964Z,1014.12
2017-04-02T07:13:28.717Z,1014.16
2017-04-02T07:14:39.872Z,1014.16
2017-04-02T07:15:50.061Z,1014.21
2017-04-02T07:17:01.098Z,1014.21
2017-04-02T07:18:11.299Z,1014.22
2017-04-02T07:19:21.263Z,1014.21
2017-04-02T07:20:31.487Z,1014.19
2017-04-02T07:21:41.383Z,1014.2
2017-04-02T07:22:51.623Z,1014.22
2017-04-02T07:24:02.100Z,1014.23
2017-04-02T07:25:13.512Z,1014.25
2017-04-02T07:26:22.854Z,1014.28
2017-04-02T07:27:32.774Z,1014.29
2017-04-02T07:28:42.686Z,1014.29
2017-04-02T07:29:52.602Z,1014.28
2017-04-02T07:31:02.868Z,1014.35
2017-04-02T07:32:13.198Z,1014.39
2017-04-02T07:33:23.766Z,1014.4
2017-04-02T07:34:33.382Z,1014.41
2017-04-02T07:35:43.592Z,1014.44
2017-04-02T07:36:54.594Z,1014.43
2017-04-02T07:38:04.803Z,1014.47
2017-04-02T07:39:15.044Z,1014.48
2017-04-02T07:40:25.268Z,1014.48
2017-04-02T07:41:35.178Z,1014.47
2017-04-02T07:42:45.233Z,1014.5
2017-04-02T07:43:55.154Z,1014.48
2017-04-02T07:45:04.781Z,1014.51
2017-04-02T07:46:15.007Z,1014.49
2017-04-02T07:47:24.629Z,1014.51
2017-04-02T07:48:34.683Z,1014.5
2017-04-02T07:49:44.915Z,1014.49
2017-04-02T07:50:54.253Z,1014.48
2017-04-02T07:52:04.165Z,1014.51
2017-04-02T07:53:14.074Z,1014.51
2017-04-02T07:54:24.345Z,1014.49
2017-04-02T07:55:33.945Z,1014.5
2017-04-02T07:56:43.873Z,1014.55
2017-04-02T07:57:53.782Z,1014.59
2017-04-02T07:59:03.702Z,1014.6
2017-04-02T08:00:15.288Z,1014.64
2017-04-02T08:01:24.899Z,1014.62
2017-04-02T08:02:34.801Z,1014.63
2017-04-02T08:03:44.711Z,1014.63
2017-04-02T08:04:54.634Z,1014.67
2017-04-02T08:06:04.636Z,1014.63
2017-04-02T08:07:14.565Z,1014.67
2017-04-02T08:08:24.192Z,1014.68
2017-04-02T08:09:34.119Z,1014.68
2017-04-02T08:10:44.026Z,1014.72
2017-04-02T08:11:53.937Z,1014.75
2017-04-02T08:13:03.857Z,1014.75
2017-04-02T08:14:13.454Z,1014.76
2017-04-02T08:15:23.659Z,1014.77
2017-04-02T08:16:33.581Z,1014.83
2017-04-02T08:17:43.792Z,1014.85
2017-04-02T08:18:54.007Z,1014.86
2017-04-02T08:20:04.217Z,1014.89
2017-04-02T08:21:14.134Z,1014.89
2017-04-02T08:22:23.781Z,1014.87
2017-04-02T08:23:33.262Z,1014.93
2017-04-02T08:24:42.874Z,1014.92
2017-04-02T08:25:52.808Z,1014.95
2017-04-02T08:27:02.420Z,1014.95
2017-04-02T08:28:12.035Z,1014.95
2017-04-02T08:29:22.299Z,1015.01
2017-04-02T08:30:32.221Z,1015
2017-04-02T08:31:42.141Z,1015
2017-04-02T08:32:51.453Z,1015.05
2017-04-02T08:34:01.382Z,1015.04
2017-04-02T08:35:11.450Z,1015.07
2017-04-02T08:36:21.713Z,1015.09
2017-04-02T08:37:31.932Z,1015.06
2017-04-02T08:38:41.846Z,1015.07
2017-04-02T08:39:52.070Z,1015.07
2017-04-02T08:41:02.286Z,1015.1
2017-04-02T08:42:11.894Z,1015.11
2017-04-02T08:43:21.495Z,1015.11
2017-04-02T08:44:31.398Z,1015.13
2017-04-02T08:45:41.302Z,1015.12
2017-04-02T08:46:51.577Z,1015.17
2017-04-02T08:48:02.118Z,1015.16
2017-04-02T08:49:13.930Z,1015.14
2017-04-02T08:50:24.236Z,1015.16
2017-04-02T08:51:35.783Z,1015.14
2017-04-02T08:52:45.749Z,1015.13
2017-04-02T08:53:55.383Z,1015.11
2017-04-02T08:55:05.706Z,1015.13
2017-04-02T08:56:15.965Z,1015.14
2017-04-02T08:57:25.313Z,1015.18
2017-04-02T08:58:35.758Z,1015.17
2017-04-02T08:59:45.673Z,1015.18
2017-04-02T09:00:55.895Z,1015.24
2017-04-02T09:02:05.805Z,1015.24
2017-04-02T09:03:15.751Z,1015.24
2017-04-02T09:04:26.826Z,1015.23
2017-04-02T09:05:36.760Z,1015.25
2017-04-02T09:06:46.981Z,1015.28
2017-04-02T09:07:56.888Z,1015.33
2017-04-02T09:09:06.844Z,1015.34
2017-04-02T09:10:17.194Z,1015.38
2017-04-02T09:11:27.116Z,1015.32
2017-04-02T09:12:37.103Z,1015.38
2017-04-02T09:13:47.030Z,1015.38
2017-04-02T09:14:57.271Z,1015.4
2017-04-02T09:16:07.365Z,1015.41
2017-04-02T09:17:17.282Z,1015.37
2017-04-02T09:18:27.236Z,1015.38
2017-04-02T09:19:36.229Z,1015.38
2017-04-02T09:20:46.442Z,1015.39
2017-04-02T09:21:56.189Z,1015.41
2017-04-02T09:23:06.438Z,1015.44
2017-04-02T09:24:16.347Z,1015.45
2017-04-02T09:25:26.279Z,1015.48
2017-04-02T09:26:36.503Z,1015.52
2017-04-02T09:27:47.728Z,1015.53
2017-04-02T09:28:59.271Z,1015.48
2017-04-02T09:30:09.787Z,1015.51
2017-04-02T09:31:19.719Z,1015.51
2017-04-02T09:32:29.888Z,1015.53
2017-04-02T09:33:40.752Z,1015.49
2017-04-02T09:34:50.681Z,1015.57
2017-04-02T09:36:00.571Z,1015.54
2017-04-02T09:37:10.571Z,1015.53
2017-04-02T09:38:20.455Z,1015.6
2017-04-02T09:39:30.650Z,1015.56
2017-04-02T09:40:40.560Z,1015.61
2017-04-02T09:41:50.464Z,1015.6
2017-04-02T09:43:00.079Z,1015.59
2017-04-02T09:44:09.997Z,1015.63
2017-04-02T09:45:20.365Z,1015.62
2017-04-02T09:46:30.602Z,1015.65
2017-04-02T09:47:40.807Z,1015.66
2017-04-02T09:48:50.711Z,1015.64
2017-04-02T09:50:00.641Z,1015.61
2017-04-02T09:51:11.018Z,1015.66
2017-04-02T09:52:20.619Z,1015.62
2017-04-02T09:53:30.539Z,1015.62
2017-04-02T09:54:40.135Z,1015.62
2017-04-02T09:55:50.351Z,1015.64
2017-04-02T09:57:00.359Z,1015.67
2017-04-02T09:58:09.977Z,1015.68
2017-04-02T09:59:20.211Z,1015.7
2017-04-02T10:00:30.438Z,1015.72
2017-04-02T10:01:40.370Z,1015.72
2017-04-02T10:02:51.353Z,1015.68
2017-04-02T10:04:00.959Z,1015.64
2017-04-02T10:05:10.631Z,1015.66
2017-04-02T10:06:20.542Z,1015.67
2017-04-02T10:07:30.767Z,1015.65
2017-04-02T10:08:40.535Z,1015.65
2017-04-02T10:09:50.460Z,1015.63
2017-04-02T10:11:00.056Z,1015.64
2017-04-02T10:12:10.039Z,1015.63
2017-04-02T10:13:20.296Z,1015.62
2017-04-02T10:14:30.623Z,1015.68
2017-04-02T10:15:40.540Z,1015.65
2017-04-02T10:16:50.826Z,1015.67
2017-04-02T10:18:00.763Z,1015.68
2017-04-02T10:19:10.749Z,1015.71
2017-04-02T10:20:20.405Z,1015.7
2017-04-02T10:21:30.027Z,1015.71
2017-04-02T10:22:39.931Z,1015.72
2017-04-02T10:23:49.854Z,1015.69
2017-04-02T10:24:59.773Z,1015.65
2017-04-02T10:26:10.349Z,1015.73
2017-04-02T10:27:19.973Z,1015.73
2017-04-02T10:28:30.201Z,1015.72
2017-04-02T10:29:40.437Z,1015.72
2017-04-02T10:30:50.663Z,1015.69
2017-04-02T10:32:00.860Z,1015.7
2017-04-02T10:33:10.468Z,1015.68
2017-04-02T10:34:20.686Z,1015.71
2017-04-02T10:35:30.310Z,1015.75
2017-04-02T10:36:40.567Z,1015.67
2017-04-02T10:37:50.519Z,1015.71
2017-04-02T10:39:00.748Z,1015.75
2017-04-02T10:40:10.363Z,1015.78
2017-04-02T10:41:20.587Z,1015.78
2017-04-02T10:42:30.512Z,1015.77
2017-04-02T10:43:39.895Z,1015.76
2017-04-02T10:44:50.110Z,1015.71
2017-04-02T10:45:59.394Z,1015.72
2017-04-02T10:47:09.313Z,1015.68
2017-04-02T10:48:18.629Z,1015.72
2017-04-02T10:49:28.840Z,1015.68
2017-04-02T10:50:38.738Z,1015.72
2017-04-02T10:51:48.408Z,1015.71
2017-04-02T10:52:58.350Z,1015.74
2017-04-02T10:54:07.956Z,1015.73
2017-04-02T10:55:17.915Z,1015.68
2017-04-02T10:56:27.823Z,1015.63
2017-04-02T10:57:38.079Z,1015.64
2017-04-02T10:58:48.290Z,1015.64
2017-04-02T10:59:58.197Z,1015.65
2017-04-02T11:01:07.850Z,1015.63
2017-04-02T11:02:18.058Z,1015.65
2017-04-02T11:03:27.673Z,1015.63
2017-04-02T11:04:37.577Z,1015.66
2017-04-02T11:05:47.191Z,1015.64
2017-04-02T11:06:58.210Z,1015.64
2017-04-02T11:08:08.154Z,1015.64
2017-04-02T11:09:17.441Z,1015.64
2017-04-02T11:10:26.739Z,1015.68
2017-04-02T11:11:36.352Z,1015.69
2017-04-02T11:12:46.576Z,1015.61
2017-04-02T11:13:56.525Z,1015.67
2017-04-02T11:15:06.167Z,1015.7
2017-04-02T11:16:16.126Z,1015.72
2017-04-02T11:17:25.731Z,1015.68
2017-04-02T11:18:35.776Z,1015.75
2017-04-02T11:19:45.106Z,1015.74
2017-04-02T11:20:55.017Z,1015.73
2017-04-02T11:22:04.964Z,1015.73
2017-04-02T11:23:15.233Z,1015.78
2017-04-02T11:24:24.934Z,1015.8
2017-04-02T11:25:34.887Z,1015.82
2017-04-02T11:26:44.828Z,1015.83
2017-04-02T11:27:54.991Z,1015.8
2017-04-02T11:29:04.897Z,1015.78
2017-04-02T11:30:15.150Z,1015.81
2017-04-02T11:31:26.985Z,1015.79
2017-04-02T11:32:36.745Z,1015.84
2017-04-02T11:33:47.702Z,1015.86
2017-04-02T11:34:57.987Z,1015.81
2017-04-02T11:36:07.304Z,1015.89
2017-04-02T11:37:16.914Z,1015.91
2017-04-02T11:38:28.189Z,1015.9
2017-04-02T11:39:37.617Z,1015.87
2017-04-02T11:40:47.568Z,1015.82
2017-04-02T11:41:57.892Z,1015.86
2017-04-02T11:43:07.965Z,1015.83
2017-04-02T11:44:18.318Z,1015.82
2017-04-02T11:45:27.670Z,1015.83
2017-04-02T11:46:38.000Z,1015.79
2017-04-02T11:47:47.918Z,1015.79
2017-04-02T11:48:57.423Z,1015.8
2017-04-02T11:50:08.180Z,1015.75
2017-04-02T11:51:18.424Z,1015.78
2017-04-02T11:52:28.104Z,1015.79
2017-04-02T11:53:37.738Z,1015.82
2017-04-02T11:54:47.663Z,1015.77
2017-04-02T11:55:58.035Z,1015.85
2017-04-02T11:57:07.645Z,1015.81
2017-04-02T11:58:17.943Z,1015.78
2017-04-02T11:59:27.638Z,1015.79
2017-04-02T12:00:37.239Z,1015.74
2017-04-02T12:01:47.184Z,1015.73
2017-04-02T12:02:57.109Z,1015.81
2017-04-02T12:04:07.428Z,1015.84
2017-04-02T12:05:17.715Z,1015.88
2017-04-02T12:06:28.041Z,1015.83
2017-04-02T12:07:38.720Z,1015.87
2017-04-02T12:08:48.685Z,1015.84
2017-04-02T12:09:57.997Z,1015.85
2017-04-02T12:11:08.002Z,1015.79
2017-04-02T12:12:17.656Z,1015.86
2017-04-02T12:13:28.033Z,1015.86
2017-04-02T12:14:37.943Z,1015.8
2017-04-02T12:15:48.742Z,1015.8
2017-04-02T12:16:58.976Z,1015.82
2017-04-02T12:18:08.914Z,1015.79
2017-04-02T12:19:18.773Z,1015.83
2017-04-02T12:20:28.732Z,1015.83
2017-04-02T12:21:38.344Z,1015.8
2017-04-02T12:22:48.817Z,1015.85
2017-04-02T12:23:58.738Z,1015.87
2017-04-02T12:25:08.414Z,1015.84
2017-04-02T12:26:18.402Z,1015.87
2017-04-02T12:27:27.715Z,1015.83
2017-04-02T12:28:38.578Z,1015.83
2017-04-02T12:29:48.495Z,1015.83
2017-04-02T12:30:58.100Z,1015.85
2017-04-02T12:32:08.332Z,1015.87
2017-04-02T12:33:18.507Z,1015.86
2017-04-02T12:34:28.520Z,1015.87
2017-04-02T12:35:37.514Z,1015.83
2017-04-02T12:36:47.835Z,1015.83
2017-04-02T12:37:58.892Z,1015.83
2017-04-02T12:39:09.057Z,1015.85
2017-04-02T12:40:19.153Z,1015.87
2017-04-02T12:41:29.865Z,1015.89
2017-04-02T12:42:40.742Z,1015.85
2017-04-02T12:43:50.449Z,1015.84
2017-04-02T12:45:01.046Z,1015.9
2017-04-02T12:46:11.394Z,1015.86
2017-04-02T12:47:21.372Z,1015.89
2017-04-02T12:48:32.342Z,1015.92
2017-04-02T12:49:42.619Z,1015.9
2017-04-02T12:50:52.633Z,1015.88
2017-04-02T12:52:01.942Z,1015.86
2017-04-02T12:53:11.566Z,1015.86
2017-04-02T12:54:21.490Z,1015.86
2017-04-02T12:55:31.092Z,1015.88
2017-04-02T12:56:40.730Z,1015.87
2017-04-02T12:57:50.665Z,1015.84
2017-04-02T12:59:00.896Z,1015.81
2017-04-02T13:00:11.170Z,1015.83
2017-04-02T13:01:21.309Z,1015.79
2017-04-02T13:02:31.509Z,1015.81
2017-04-02T13:03:41.427Z,1015.8
2017-04-02T13:04:51.134Z,1015.8
2017-04-02T13:06:00.699Z,1015.88
2017-04-02T13:07:10.840Z,1015.83
2017-04-02T13:08:20.765Z,1015.81
2017-04-02T13:09:31.073Z,1015.8
2017-04-02T13:10:40.062Z,1015.81
2017-04-02T13:11:49.820Z,1015.82
2017-04-02T13:13:01.104Z,1015.84
2017-04-02T13:14:10.502Z,1015.85
2017-04-02T13:15:20.978Z,1015.83
2017-04-02T13:16:31.692Z,1015.86
2017-04-02T13:17:42.132Z,1015.87
2017-04-02T13:18:52.359Z,1015.85
2017-04-02T13:20:02.292Z,1015.87
2017-04-02T13:21:11.925Z,1015.86
2017-04-02T13:22:22.540Z,1015.85
2017-04-02T13:23:33.090Z,1015.84
2017-04-02T13:24:42.931Z,1015.85
2017-04-02T13:25:52.890Z,1015.82
2017-04-02T13:27:02.820Z,1015.81
2017-04-02T13:28:13.063Z,1015.85
2017-04-02T13:29:23.699Z,1015.83
2017-04-02T13:30:33.002Z,1015.9
2017-04-02T13:31:42.994Z,1015.8
2017-04-02T13:32:53.229Z,1015.84
2017-04-02T13:34:03.527Z,1015.86
2017-04-02T13:35:13.746Z,1015.84
2017-04-02T13:36:23.950Z,1015.87
2017-04-02T13:37:33.567Z,1015.79
2017-04-02T13:38:43.845Z,1015.83
2017-04-02T13:39:54.009Z,1015.83
2017-04-02T13:41:04.211Z,1015.83
2017-04-02T13:42:14.125Z,1015.86
2017-04-02T13:43:24.412Z,1015.83
2017-04-02T13:44:34.010Z,1015.84
2017-04-02T13:45:44.000Z,1015.84
2017-04-02T13:46:54.451Z,1015.83
2017-04-02T13:48:04.369Z,1015.85
2017-04-02T13:49:14.297Z,1015.84
2017-04-02T13:50:24.633Z,1015.84
2017-04-02T13:51:34.009Z,1015.87
2017-04-02T13:52:44.604Z,1015.85
2017-04-02T13:53:54.760Z,1015.89
2017-04-02T13:55:04.975Z,1015.85
2017-04-02T13:56:15.122Z,1015.89
2017-04-02T13:57:25.354Z,1015.93
2017-04-02T13:58:35.966Z,1015.87
2017-04-02T13:59:46.248Z,1015.92
2017-04-02T14:00:56.002Z,1015.9
2017-04-02T14:02:06.236Z,1015.84
2017-04-02T14:03:16.555Z,1015.88
2017-04-02T14:04:27.211Z,1015.86
2017-04-02T14:05:37.243Z,1015.88
2017-04-02T14:06:47.600Z,1015.85
2017-04-02T14:07:57.499Z,1015.86
2017-04-02T14:09:07.428Z,1015.86
2017-04-02T14:10:17.143Z,1015.87